PDT,Max TemperatureF,Mean TemperatureF,Min TemperatureF,Max Dew PointF,MeanDew PointF,Min DewpointF,Max Humidity, Mean Humidity, Min Humidity, Max Sea Level PressureIn, Mean Sea Level PressureIn, Min Sea Level PressureIn, Max VisibilityMiles, Mean VisibilityMiles, Min VisibilityMiles, Max Wind SpeedMPH, Mean Wind SpeedMPH, Max Gust SpeedMPH,PrecipitationIn, CloudCover, Events, WindDirDegrees
2013-3-1,62,46,30,37,31,26,92,60,27,30.52,30.45,30.38,,,,14,4,20,0.00,,,185
2013-3-2,65,45,25,34,29,23,100,64,27,30.38,30.18,29.99,,,,23,7,32,0.00,,,212
2013-3-3,49,33,16,37,22,4,92,57,22,30.16,30.03,29.97,,,,18,7,26,0.02,,,6
2013-3-4,49,31,13,18,13,8,80,52,23,30.27,30.17,30.07,,,,13,5,16,0.00,,,123
2013-3-5,60,40,20,28,22,15,84,54,24,30.07,29.87,29.65,,,,29,8,36,0.00,,,169
2013-3-6,51,38,25,32,21,13,89,56,23,29.99,29.75,29.61,,,,40,18,52,0.01,,,198
2013-3-7,48,30,12,20,16,12,88,57,25,30.08,29.99,29.94,,,,14,5,17,0.00,,,55
2013-3-8,50,34,18,22,16,8,84,56,28,30.05,29.95,29.87,,,,18,5,21,0.00,,,25
2013-3-9,53,35,16,16,11,6,80,48,16,30.43,30.29,30.08,,,,18,8,23,0.00,,,278
2013-3-10,59,38,17,15,7,-3,67,38,8,30.49,30.39,30.30,,,,13,7,17,0.00,,,198
2013-3-11,59,44,29,34,26,10,60,48,36,30.34,30.27,30.20,,,,16,7,21,0.00,,,181
2013-3-12,69,49,28,34,27,20,92,54,16,30.26,30.19,30.12,,,,18,6,23,0.00,,,179
2013-3-13,71,52,32,29,23,17,64,39,14,30.25,30.18,30.12,,,,15,5,20,0.00,,,116
2013-3-14,71,53,34,25,19,12,56,34,11,30.18,30.13,30.09,,,,23,6,29,0.00,,,196
2013-3-15,65,50,34,27,22,19,59,39,18,30.16,30.10,30.03,,,,15,6,20,0.00,,,48
2013-3-16,59,43,26,27,22,16,75,47,19,30.10,29.99,29.88,,,,25,10,38,0.00,,,219
2013-3-17,50,41,32,23,15,6,61,40,18,30.10,30.02,29.87,,,,24,8,33,0.00,,,303
2013-3-18,53,38,22,18,11,5,60,38,15,30.17,30.13,30.09,,,,15,6,21,0.00,,,49
2013-3-19,60,41,21,43,16,4,92,54,16,30.21,30.08,29.91,,,,29,6,36,0.06,,,207
2013-3-20,63,48,33,42,34,22,92,59,25,29.95,29.79,29.66,,,,40,20,52,0.06,,,211
2013-3-21,46,36,25,21,13,7,58,40,22,30.14,30.07,29.96,,,,22,9,26,0.00,,,296
2013-3-22,39,29,18,20,12,8,81,55,29,30.27,30.14,30.06,,,,30,13,36,0.00,,,292
2013-3-23,41,27,13,16,9,4,84,53,22,30.35,30.28,30.22,,,,12,5,15,0.00,,,97
2013-3-24,50,30,10,15,10,5,76,50,23,30.29,30.20,30.11,,,,13,5,16,0.00,,,66
2013-3-25,61,46,31,25,20,14,54,39,24,30.09,29.98,29.86,,,,15,5,20,0.00,,,16
2013-3-26,55,45,35,35,29,22,70,57,43,29.94,29.90,29.85,,,,12,4,17,0.00,,,183
2013-3-27,63,47,31,35,28,22,82,53,23,29.96,29.92,29.88,,,,14,4,17,0.00,,,177
2013-3-28,61,46,31,34,29,23,72,52,32,30.07,30.01,29.96,,,,21,6,26,0.00,,,173
2013-3-29,67,49,31,33,29,23,82,51,19,30.19,30.14,30.07,,,,15,5,20,0.00,,,228
2013-3-30,70,49,28,33,27,23,78,48,18,30.23,30.15,30.07,,,,14,6,17,0.00,,,41
2013-3-31,68,50,31,30,28,26,75,50,24,30.05,29.95,29.83,,,,29,9,37,0.31,,,65